Forside
METAR-TAF:

METAR-TAF

Lufthavne :

Pago Pago, USA's ydre småøer

Breddekreds: 14-20S, længdekreds: 170-43W, højde: 3 m

Aktuelle vejr

Denne rapport blev lavet for 1 time og 10 minutter siden, kl. 02:50 UTC
Vind 9 kt fra nordnordvest med vindstød på up til 23 kt
Temperatur 28°C
Fugtighed 84%
Tryk 1006 hPa
Sigt: 17.7 km
Spredte skyer i en højde af 1100 ft
Overskyet i en højde af 3500 ft

METAR: NSTU 160250Z 34009G23KT 11SM SCT011 OVC035 28/25 A2971 RMK SLP061 8/4// T02800246 56017

Tid: 17:00 (04:00 UTC)

Vejrudsigter

Denne rapport blev lavet for 4 timer og 15 minutter siden, kl. 23:45 UTC
Foreløbig gælder fra 16 på 00 UTC til 16 på 24 UTC
Vind 10 kt fra vestnordvest
Sigt: 10 km
Spredte skyer i en højde af 1500 ft
Brudte skyer i en højde af 4000 ft
Overskyet i en højde af 10000 ft
byger i nærheden

TAF: NSTU 152345Z 1600/1624 30010KT P6SM VCSH SCT015 BKN040 OVC100

Vejrobservationer og prognoser fra mere end 4000 lufthavne (METAR og TAF).

De gule og røde prikker repræsenterer de meteorologiske stationer.

Flyt musen over at se navnet på stationen.

Så klik over at se vejr observationer og prognoser.

At skifte det kort: Klik på de grønne knapper med et sort kors for at zoome ind; på den grønne knap med en bindestreg for at zoome ud; eller på de grønne pile for tilstødende kort.


METAR-TAF: